createdAt,value
2019-01-23T00:01:11.945Z,-1.50
2019-01-23T00:04:01.194Z,-1.50
2019-01-23T00:06:50.047Z,-1.50
2019-01-23T00:09:38.893Z,-1.50
2019-01-23T00:12:27.692Z,-1.50
2019-01-23T00:15:16.103Z,-1.50
2019-01-23T00:18:04.567Z,-1.40
2019-01-23T00:20:53.209Z,-1.50
2019-01-23T00:23:41.800Z,-1.50
2019-01-23T00:26:30.996Z,-1.50
2019-01-23T00:29:12.837Z,-1.50
2019-01-23T00:31:53.936Z,-1.40
2019-01-23T00:34:35.784Z,-1.40
2019-01-23T00:37:17.750Z,-1.30
2019-01-23T00:39:48.237Z,-1.30
2019-01-23T00:42:37.389Z,-1.30
2019-01-23T00:45:18.582Z,-1.30
2019-01-23T00:47:59.917Z,-1.30
2019-01-23T00:50:40.756Z,-1.30
2019-01-23T00:59:33.910Z,-1.20
2019-01-23T01:02:15.312Z,-1.30
2019-01-23T01:04:56.570Z,-1.30
2019-01-23T01:07:37.259Z,-1.20
2019-01-23T01:10:18.296Z,-1.20
2019-01-23T01:12:59.750Z,-1.30
2019-01-23T01:15:41.117Z,-1.30
2019-01-23T01:18:22.412Z,-1.20
2019-01-23T01:24:16.329Z,-1.40
2019-01-23T01:26:58.087Z,-1.30
2019-01-23T01:29:39.599Z,-1.50
2019-01-23T01:32:21.000Z,-1.50
2019-01-23T01:34:51.616Z,-1.30
2019-01-23T01:37:40.830Z,-1.30
2019-01-23T01:40:30.076Z,-1.20
2019-01-23T01:43:18.993Z,-1.20
2019-01-23T01:46:00.495Z,-1.20
2019-01-23T01:48:41.543Z,-1.10
2019-01-23T01:51:22.643Z,-0.90
2019-01-23T01:54:04.592Z,-1.00
2019-01-23T01:56:45.582Z,-1.10
2019-01-23T01:59:27.346Z,-1.20
2019-01-23T02:02:09.278Z,-1.20
2019-01-23T02:04:50.800Z,-1.20
2019-01-23T02:07:32.131Z,-1.20
2019-01-23T02:10:12.576Z,-1.20
2019-01-23T02:12:53.859Z,-1.20
2019-01-23T02:15:35.532Z,-1.10
2019-01-23T02:18:17.126Z,-1.10
2019-01-23T02:20:58.851Z,-1.10
2019-01-23T02:23:28.676Z,-1.10
2019-01-23T02:26:17.495Z,-1.10
2019-01-23T02:29:09.604Z,-1.20
2019-01-23T02:31:57.199Z,-1.20
2019-01-23T02:34:38.726Z,-1.10
2019-01-23T02:37:19.833Z,-1.00
2019-01-23T02:40:01.793Z,-1.00
2019-01-23T02:48:40.000Z,-0.70
2019-01-23T02:51:21.567Z,-0.90
2019-01-23T02:54:03.064Z,-0.90
2019-01-23T02:56:44.646Z,-0.90
2019-01-23T02:59:25.947Z,-1.10
2019-01-23T03:02:06.975Z,-1.10
2019-01-23T03:04:48.125Z,-1.00
2019-01-23T03:07:30.014Z,-1.00
2019-01-23T03:10:00.428Z,-0.90
2019-01-23T03:12:49.231Z,-0.90
2019-01-23T03:15:38.054Z,-0.80
2019-01-23T03:18:08.408Z,-1.00
2019-01-23T03:20:56.980Z,-1.00
2019-01-23T03:23:46.296Z,-0.90
2019-01-23T03:26:15.975Z,-0.90
2019-01-23T03:29:05.089Z,-1.00
2019-01-23T03:31:54.169Z,-1.10
2019-01-23T03:34:43.076Z,-1.10
2019-01-23T03:37:32.367Z,-1.20
2019-01-23T03:40:22.132Z,-1.30
2019-01-23T03:43:11.016Z,-1.30
2019-01-23T03:45:59.844Z,-1.20
2019-01-23T03:48:48.669Z,-1.20
2019-01-23T03:51:37.482Z,-1.30
2019-01-23T03:54:25.929Z,-1.30
2019-01-23T03:57:07.036Z,-1.40
2019-01-23T03:59:48.222Z,-1.40
2019-01-23T04:02:29.639Z,-1.30
2019-01-23T04:05:11.189Z,-1.30
2019-01-23T04:07:52.271Z,-1.30
2019-01-23T04:10:33.707Z,-1.30
2019-01-23T04:13:14.651Z,-1.20
2019-01-23T04:15:56.144Z,-1.20
2019-01-23T04:18:37.355Z,-1.30
2019-01-23T04:24:00.670Z,-1.30
2019-01-23T04:26:30.659Z,-1.30
2019-01-23T04:29:19.457Z,-1.30
2019-01-23T04:32:08.283Z,-1.30
2019-01-23T04:34:57.679Z,-1.30
2019-01-23T04:41:00.599Z,-1.30
2019-01-23T04:43:49.979Z,-1.30
2019-01-23T04:46:39.079Z,-1.30
2019-01-23T04:49:28.052Z,-1.30
2019-01-23T04:52:35.862Z,-1.30
2019-01-23T04:55:24.119Z,-1.30
2019-01-23T04:58:13.191Z,-1.30
2019-01-23T05:01:02.243Z,-1.40
2019-01-23T05:03:50.901Z,-1.40
2019-01-23T05:06:39.332Z,-1.40
2019-01-23T05:09:09.673Z,-1.30
2019-01-23T05:11:58.536Z,-1.40
2019-01-23T05:14:47.666Z,-1.40
2019-01-23T05:17:36.711Z,-1.40
2019-01-23T05:20:25.711Z,-1.40
2019-01-23T05:23:15.031Z,-1.40
2019-01-23T05:26:03.947Z,-1.40
2019-01-23T05:28:52.811Z,-1.50
2019-01-23T05:31:41.939Z,-1.40
2019-01-23T05:34:30.855Z,-1.40
2019-01-23T05:37:11.936Z,-1.40
2019-01-23T05:39:53.185Z,-1.40
2019-01-23T05:42:34.000Z,-1.40
2019-01-23T05:45:04.238Z,-1.40
2019-01-23T05:47:53.424Z,-1.40
2019-01-23T05:50:42.538Z,-1.40
2019-01-23T05:53:31.640Z,-1.40
2019-01-23T05:56:21.105Z,-1.40
2019-01-23T05:59:09.876Z,-1.40
2019-01-23T06:01:58.703Z,-1.40
2019-01-23T06:08:16.338Z,-1.30
2019-01-23T06:10:57.621Z,-1.30
2019-01-23T06:13:39.155Z,-1.40
2019-01-23T06:16:21.031Z,-1.40
2019-01-23T06:19:02.566Z,-1.40
2019-01-23T06:21:43.785Z,-1.50
2019-01-23T06:24:24.817Z,-1.50
2019-01-23T06:26:55.146Z,-1.60
2019-01-23T06:29:43.779Z,-1.60
2019-01-23T06:32:13.488Z,-1.60
2019-01-23T06:35:02.418Z,-1.70
2019-01-23T06:37:51.038Z,-1.80
2019-01-23T06:40:21.076Z,-1.80
2019-01-23T06:43:09.869Z,-1.80
2019-01-23T06:45:58.854Z,-1.80
2019-01-23T06:48:28.973Z,-1.80
2019-01-23T06:51:18.051Z,-1.80
2019-01-23T06:59:43.046Z,-1.60
2019-01-23T07:02:32.142Z,-1.70
2019-01-23T07:05:02.176Z,-1.70
2019-01-23T07:07:50.994Z,-1.80
2019-01-23T07:10:39.803Z,-1.80
2019-01-23T07:13:28.821Z,-1.80
2019-01-23T07:16:19.784Z,-1.80
2019-01-23T07:19:08.719Z,-1.80
2019-01-23T07:21:58.003Z,-1.80
2019-01-23T07:24:46.775Z,-1.80
2019-01-23T07:27:35.884Z,-1.90
2019-01-23T07:30:26.248Z,-1.80
2019-01-23T07:33:15.395Z,-1.80
2019-01-23T07:36:04.607Z,-1.70
2019-01-23T07:38:53.375Z,-1.60
2019-01-23T07:41:42.139Z,-1.60
2019-01-23T07:44:12.252Z,-1.60
2019-01-23T07:47:01.427Z,-1.60
2019-01-23T07:49:31.751Z,-1.60
2019-01-23T07:52:01.750Z,-1.50
2019-01-23T07:54:50.244Z,-1.40
2019-01-23T07:57:39.503Z,-1.50
2019-01-23T08:00:31.462Z,-1.50
2019-01-23T08:03:19.420Z,-1.50
2019-01-23T08:05:49.657Z,-1.40
2019-01-23T08:08:37.917Z,-1.30
2019-01-23T08:11:26.509Z,-1.30
2019-01-23T08:14:15.312Z,-1.30
2019-01-23T08:17:04.526Z,-0.90
2019-01-23T08:19:53.335Z,-0.90
2019-01-23T08:22:42.115Z,-0.90
2019-01-23T08:25:30.877Z,-0.90
2019-01-23T08:28:01.097Z,-0.90
2019-01-23T08:30:50.294Z,-0.80
2019-01-23T08:33:39.173Z,-0.90
2019-01-23T08:36:28.008Z,-0.80
2019-01-23T08:39:17.079Z,-0.70
2019-01-23T08:42:05.921Z,-0.60
2019-01-23T08:44:55.195Z,-0.60
2019-01-23T08:47:44.306Z,-0.70
2019-01-23T08:50:25.519Z,-0.70
2019-01-23T08:52:55.856Z,-0.60
2019-01-23T08:55:44.687Z,-0.40
2019-01-23T08:58:33.586Z,-0.40
2019-01-23T09:01:22.655Z,-0.20
2019-01-23T09:04:11.399Z,-0.20
2019-01-23T09:06:59.970Z,-0.20
2019-01-23T09:09:48.208Z,-0.10
2019-01-23T09:12:37.075Z,-0.30
2019-01-23T09:15:25.843Z,-0.10
2019-01-23T09:18:14.376Z,-0.10
2019-01-23T09:21:03.479Z,0.00
2019-01-23T09:23:52.785Z,0.00
2019-01-23T09:26:41.563Z,0.20
2019-01-23T09:29:30.345Z,0.30
2019-01-23T09:32:38.368Z,0.40
2019-01-23T09:35:46.105Z,0.50
2019-01-23T09:38:53.959Z,0.40
2019-01-23T09:42:01.828Z,0.60
2019-01-23T09:45:09.695Z,0.60
2019-01-23T09:48:17.927Z,0.60
2019-01-23T09:51:25.673Z,0.60
2019-01-23T09:54:15.406Z,0.60
2019-01-23T09:57:04.414Z,0.60
2019-01-23T09:59:53.427Z,0.60
2019-01-23T10:02:42.033Z,0.60
2019-01-23T10:05:30.835Z,0.60
2019-01-23T10:08:19.724Z,0.80
2019-01-23T10:11:08.635Z,0.80
2019-01-23T10:13:57.833Z,0.60
2019-01-23T10:16:46.667Z,0.70
2019-01-23T10:19:35.428Z,0.60
2019-01-23T10:22:24.284Z,0.70
2019-01-23T10:25:13.564Z,0.80
2019-01-23T10:28:02.716Z,1.00
2019-01-23T10:30:51.819Z,1.00
2019-01-23T10:33:40.039Z,0.90
2019-01-23T10:36:28.642Z,0.80
2019-01-23T10:39:17.211Z,1.00
2019-01-23T10:41:47.376Z,1.00
2019-01-23T10:44:35.655Z,0.90
2019-01-23T10:47:17.077Z,1.00
2019-01-23T10:49:58.356Z,0.80
2019-01-23T10:52:39.947Z,1.00
2019-01-23T10:55:21.321Z,0.90
2019-01-23T10:58:02.927Z,1.00
2019-01-23T11:06:50.051Z,1.70
2019-01-23T11:09:57.926Z,1.60
2019-01-23T11:20:56.792Z,1.70
2019-01-23T11:23:45.952Z,1.60
2019-01-23T11:26:35.220Z,1.60
2019-01-23T11:29:24.069Z,1.70
2019-01-23T11:32:13.190Z,2.10
2019-01-23T11:35:09.420Z,2.00
2019-01-23T11:37:58.260Z,1.90
2019-01-23T11:40:47.062Z,1.60
2019-01-23T11:43:36.173Z,1.50
2019-01-23T11:46:25.426Z,1.80
2019-01-23T11:49:14.237Z,1.80
2019-01-23T11:51:44.373Z,2.00
2019-01-23T11:54:33.503Z,2.10
2019-01-23T11:57:22.027Z,2.00
2019-01-23T12:00:12.468Z,2.30
2019-01-23T12:03:00.995Z,2.10
2019-01-23T12:05:50.080Z,2.10
2019-01-23T12:08:39.164Z,2.10
2019-01-23T12:11:28.051Z,2.00
2019-01-23T12:14:16.850Z,1.70
2019-01-23T12:17:05.659Z,1.80
2019-01-23T12:22:42.527Z,2.00
2019-01-23T12:25:31.617Z,2.10
2019-01-23T12:28:01.540Z,2.00
2019-01-23T12:30:50.765Z,2.20
2019-01-23T12:33:39.651Z,2.10
2019-01-23T12:36:28.464Z,2.10
2019-01-23T12:39:17.456Z,2.00
2019-01-23T12:42:06.485Z,1.60
2019-01-23T12:44:55.668Z,1.70
2019-01-23T12:47:37.397Z,1.40
2019-01-23T12:50:18.835Z,1.50
2019-01-23T12:53:00.076Z,1.50
2019-01-23T12:55:42.098Z,1.70
2019-01-23T12:58:23.677Z,1.90
2019-01-23T13:01:05.209Z,1.60
2019-01-23T13:03:46.239Z,1.50
2019-01-23T13:06:27.257Z,1.50
2019-01-23T13:09:08.325Z,1.60
2019-01-23T13:11:49.426Z,1.60
2019-01-23T13:14:30.774Z,1.60
2019-01-23T13:17:11.978Z,1.40
2019-01-23T13:19:53.752Z,1.60
2019-01-23T13:22:35.653Z,1.70
2019-01-23T13:25:17.288Z,1.50
2019-01-23T13:33:55.522Z,1.60
2019-01-23T13:36:36.560Z,1.20
2019-01-23T13:39:17.819Z,1.10
2019-01-23T13:41:59.222Z,1.10
2019-01-23T13:44:40.431Z,1.30
2019-01-23T13:47:22.289Z,1.40
2019-01-23T13:50:03.503Z,1.50
2019-01-23T13:52:33.630Z,1.50
2019-01-23T13:55:22.917Z,1.30
2019-01-23T13:58:11.837Z,1.40
2019-01-23T14:01:00.651Z,1.40
2019-01-23T14:03:49.151Z,1.30
2019-01-23T14:06:38.343Z,1.30
2019-01-23T14:09:09.415Z,1.30
2019-01-23T14:11:58.349Z,1.30
2019-01-23T14:14:28.556Z,1.30
2019-01-23T14:17:17.041Z,1.10
2019-01-23T14:20:07.072Z,1.00
2019-01-23T14:22:55.934Z,1.00
2019-01-23T14:25:44.945Z,0.70
2019-01-23T14:28:33.841Z,0.80
2019-01-23T14:31:22.959Z,1.00
2019-01-23T14:34:11.920Z,1.10
2019-01-23T14:37:00.777Z,1.00
2019-01-23T14:39:49.640Z,0.90
2019-01-23T14:42:38.429Z,0.80
2019-01-23T14:45:28.125Z,0.70
2019-01-23T14:48:17.258Z,0.80
2019-01-23T14:50:58.810Z,0.80
2019-01-23T14:53:40.388Z,0.90
2019-01-23T14:56:10.488Z,0.80
2019-01-23T14:58:59.711Z,0.80
2019-01-23T15:01:48.512Z,0.80
2019-01-23T15:04:37.287Z,0.70
2019-01-23T15:07:26.207Z,0.60
2019-01-23T15:10:16.104Z,0.50
2019-01-23T15:13:25.279Z,0.50
2019-01-23T15:16:14.453Z,0.60
2019-01-23T15:19:03.632Z,0.70
2019-01-23T15:21:52.519Z,0.70
2019-01-23T15:24:41.415Z,0.80
2019-01-23T15:27:29.745Z,0.80
2019-01-23T15:30:20.523Z,0.70
2019-01-23T15:33:10.029Z,0.60
2019-01-23T15:35:40.540Z,0.60
2019-01-23T15:38:29.211Z,0.60
2019-01-23T15:41:17.773Z,0.60
2019-01-23T15:44:06.794Z,0.60
2019-01-23T15:46:55.565Z,0.50
2019-01-23T15:49:37.358Z,0.50
2019-01-23T15:52:18.964Z,0.50
2019-01-23T15:55:00.990Z,0.50
2019-01-23T15:57:42.708Z,0.50
2019-01-23T16:00:24.038Z,0.50
2019-01-23T16:03:05.926Z,0.30
2019-01-23T16:05:48.222Z,0.40
2019-01-23T16:08:29.184Z,0.40
2019-01-23T16:11:11.492Z,0.40
2019-01-23T16:13:52.279Z,0.40
2019-01-23T16:16:34.285Z,0.40
2019-01-23T16:19:15.954Z,0.40
2019-01-23T16:21:57.724Z,0.50
2019-01-23T16:24:39.256Z,0.50
2019-01-23T16:27:20.640Z,0.40
2019-01-23T16:30:02.350Z,0.50
2019-01-23T16:32:43.059Z,0.40
2019-01-23T16:35:23.916Z,0.40
2019-01-23T16:38:05.595Z,0.30
2019-01-23T16:40:47.370Z,0.40
2019-01-23T16:43:28.781Z,0.40
2019-01-23T16:46:10.049Z,0.40
2019-01-23T16:48:51.524Z,0.30
2019-01-23T16:51:32.774Z,0.30
2019-01-23T16:54:14.740Z,0.30
2019-01-23T16:56:55.990Z,0.30
2019-01-23T16:59:37.854Z,0.30
2019-01-23T17:02:19.511Z,0.30
2019-01-23T17:05:01.365Z,0.30
2019-01-23T17:07:43.575Z,0.30
2019-01-23T17:10:24.462Z,0.40
2019-01-23T17:13:05.859Z,0.30
2019-01-23T17:15:46.850Z,0.30
2019-01-23T17:18:28.355Z,0.20
2019-01-23T17:21:09.318Z,0.30
2019-01-23T17:23:50.916Z,0.20
2019-01-23T17:26:32.164Z,0.20
2019-01-23T17:29:15.352Z,0.10
2019-01-23T17:31:56.639Z,0.10
2019-01-23T17:34:26.706Z,0.10
2019-01-23T17:37:15.661Z,0.10
2019-01-23T17:40:24.689Z,0.20
2019-01-23T17:46:09.035Z,0.00
2019-01-23T17:48:58.120Z,0.10
2019-01-23T17:51:47.509Z,0.10
2019-01-23T17:54:18.072Z,0.00
2019-01-23T17:57:08.580Z,0.00
2019-01-23T17:59:57.560Z,0.00
2019-01-23T18:02:28.464Z,0.10
2019-01-23T18:05:17.306Z,0.20
2019-01-23T18:08:07.010Z,0.10
2019-01-23T18:10:56.007Z,0.10
2019-01-23T18:13:44.801Z,0.10
2019-01-23T18:16:33.558Z,0.10
2019-01-23T18:19:23.322Z,0.00
2019-01-23T18:22:12.267Z,0.00
2019-01-23T18:25:01.564Z,0.00
2019-01-23T18:27:50.447Z,0.00
2019-01-23T18:30:58.373Z,0.10
2019-01-23T18:33:34.705Z,0.20
2019-01-23T18:36:42.478Z,0.10
2019-01-23T18:39:50.606Z,0.00
2019-01-23T18:42:58.561Z,-0.10
2019-01-23T18:46:06.215Z,0.10
2019-01-23T18:49:14.310Z,0.20
2019-01-23T18:51:55.602Z,0.10
2019-01-23T18:54:37.592Z,0.20
2019-01-23T18:57:19.727Z,0.00
2019-01-23T19:00:01.463Z,0.00
2019-01-23T19:02:43.017Z,-0.10
2019-01-23T19:05:24.352Z,0.00
2019-01-23T19:08:05.672Z,-0.20
2019-01-23T19:10:47.664Z,-0.10
2019-01-23T19:13:28.259Z,-0.10
2019-01-23T19:16:10.830Z,-0.20
2019-01-23T19:18:52.146Z,-0.10
2019-01-23T19:21:34.008Z,-0.10
2019-01-23T19:24:14.847Z,0.00
2019-01-23T19:26:56.396Z,-0.20
2019-01-23T19:29:37.714Z,-0.30
2019-01-23T19:32:20.128Z,-0.20
2019-01-23T19:35:04.067Z,-0.20
2019-01-23T19:37:45.503Z,-0.10
2019-01-23T19:40:26.930Z,-0.20
2019-01-23T19:43:08.676Z,-0.10
2019-01-23T19:45:38.901Z,-0.10
2019-01-23T19:48:28.145Z,-0.10
2019-01-23T19:51:17.678Z,0.00
2019-01-23T19:53:58.787Z,0.00
2019-01-23T19:56:39.775Z,-0.20
2019-01-23T19:59:20.747Z,-0.10
2019-01-23T20:02:02.581Z,-0.10
2019-01-23T20:04:33.060Z,-0.10
2019-01-23T20:07:06.342Z,-0.10
2019-01-23T20:12:50.795Z,-0.10
2019-01-23T20:15:21.615Z,-0.10
2019-01-23T20:18:11.246Z,-0.10
2019-01-23T20:21:00.679Z,0.00
2019-01-23T20:23:49.487Z,0.00
2019-01-23T20:26:19.448Z,-0.10
2019-01-23T20:29:08.653Z,-0.10
2019-01-23T20:46:16.626Z,-0.30
2019-01-23T20:49:05.233Z,-0.30
2019-01-23T20:51:54.508Z,-0.30
2019-01-23T20:54:44.181Z,-0.20
2019-01-23T20:57:25.946Z,-0.20
2019-01-23T21:00:07.552Z,-0.10
2019-01-23T21:02:49.286Z,-0.20
2019-01-23T21:05:31.398Z,-0.20
2019-01-23T21:08:03.979Z,-0.20
2019-01-23T21:10:54.451Z,-0.20
2019-01-23T21:13:43.684Z,-0.20
2019-01-23T21:16:32.660Z,-0.20
2019-01-23T21:19:22.413Z,-0.20
2019-01-23T21:21:54.519Z,-0.20
2019-01-23T21:24:44.601Z,-0.20
2019-01-23T21:27:36.597Z,-0.20
2019-01-23T21:30:09.779Z,-0.20
2019-01-23T21:32:59.053Z,-0.20
2019-01-23T21:35:48.749Z,-0.20
2019-01-23T21:38:19.610Z,-0.20
2019-01-23T21:41:08.784Z,-0.20
2019-01-23T21:43:57.985Z,-0.20
2019-01-23T21:46:47.152Z,-0.30
2019-01-23T21:49:18.775Z,-0.20
2019-01-23T21:52:09.651Z,-0.20
2019-01-23T21:55:00.188Z,-0.20
2019-01-23T21:57:50.732Z,-0.20
2019-01-23T22:00:59.859Z,-0.20
2019-01-23T22:03:49.370Z,-0.10
2019-01-23T22:06:40.194Z,-0.20
2019-01-23T22:09:29.352Z,-0.20
2019-01-23T22:12:19.038Z,-0.20
2019-01-23T22:15:11.942Z,-0.20
2019-01-23T22:18:01.363Z,-0.20
2019-01-23T22:20:50.835Z,-0.20
2019-01-23T22:23:21.526Z,-0.20
2019-01-23T22:26:11.009Z,-0.30
2019-01-23T22:28:59.899Z,-0.20
2019-01-23T22:31:49.035Z,-0.30
2019-01-23T22:34:38.311Z,-0.30
2019-01-23T22:37:27.394Z,-0.30
2019-01-23T22:39:57.590Z,-0.30
2019-01-23T22:42:27.976Z,-0.30
2019-01-23T22:45:18.053Z,-0.30
2019-01-23T22:48:07.223Z,-0.30
2019-01-23T22:50:56.203Z,-0.30
2019-01-23T22:53:26.843Z,-0.20
2019-01-23T22:55:57.140Z,-0.30
2019-01-23T22:58:46.752Z,-0.30
2019-01-23T23:04:25.373Z,-0.30
2019-01-23T23:06:56.451Z,-0.30
2019-01-23T23:09:27.199Z,-0.40
2019-01-23T23:12:16.041Z,-0.40
2019-01-23T23:14:46.226Z,-0.40
2019-01-23T23:17:35.226Z,-0.40
2019-01-23T23:20:23.674Z,-0.40
2019-01-23T23:23:12.636Z,-0.30
2019-01-23T23:26:01.701Z,-0.20
2019-01-23T23:28:50.531Z,-0.30
2019-01-23T23:31:21.039Z,-0.40
2019-01-23T23:34:10.444Z,-0.40
2019-01-23T23:36:59.556Z,-0.40
2019-01-23T23:39:48.716Z,-0.40
2019-01-23T23:42:37.868Z,-0.50
2019-01-23T23:45:27.072Z,-0.60
2019-01-23T23:47:57.201Z,-0.60
2019-01-23T23:50:46.269Z,-0.50
2019-01-23T23:53:27.756Z,-0.60
2019-01-23T23:55:58.641Z,-0.60
2019-01-23T23:58:47.346Z,-0.60
